x

Fowey Rock, Fl (fwyf1) Weather Station

11:00pm - Tue 29th Jul 2014 All times are EDT. -4 hours from GMT.

  • Wind
    8mph, 10mph gusts
  • Sea Temp 86°f
  • Air Temp 86°f
  • Sea Pressure 1016.3mb
  • Fowey Rock, Fl
  • Fowey Rock, Fl

More Historic Weather Station data

Upgrade to MSW Pro to gain access to the past 30 days of data for over 8000 Wavebouys and Weather Stations around the globe.

Join Pro

Comparision Forecast

View Surf forecast
   
Tue 07/29 11:00pm 8 10 mph 1016.3mb 86f 86f
10:00pm 15 16 mph 1016.2mb 86f 86f
9:00pm 18 20 mph 1016mb 86f 87f
8:00pm 22 23 mph 1015.6mb 87f 89f
7:00pm 16 18 mph 1015.1mb 87f 87f
6:00pm 14 15 mph 1015.1mb 87f 87f
5:00pm 18 20 mph 1015.3mb 87f 85f
4:00pm 17
mph
1015.5mb 87f 87f
3:00pm 14 15 mph 1016.2mb 87f 87f
2:00pm 16
mph
1016.7mb 87f 88f
1:00pm 5
mph
1017mb 86f 90f
12:00pm 6 7 mph 1017.5mb 86f 88f
11:00am 9 10 mph 1017.5mb 86f 86f
10:00am 11 13 mph 1017.1mb 86f 85f
9:00am 10 11 mph 1016.6mb 86f 86f
8:00am 13 14 mph 1016.4mb 86f 85f
7:00am 11 14 mph 1016.2mb 86f 84f
6:00am 14 15 mph 1015.9mb 86f 84f
5:00am 14 15 mph 1015.7mb 86f 84f
4:00am 14 15 mph 1015.9mb 86f 84f
3:00am 13 15 mph 1016.5mb 86f 85f
2:00am 13 14 mph 1017.1mb 86f 85f
1:00am 14 15 mph 1017.6mb 86f 85f
12:00am 15 16 mph 1017.9mb 86f 85f
Mon 07/28 11:00pm 17 18 mph 1017.8mb 86f 86f
10:00pm 17 18 mph 1017.5mb 86f 88f
9:00pm 18 20 mph 1017mb 87f 86f
8:00pm 18 21 mph 1016.7mb 87f 86f
7:00pm 20 21 mph 1016.9mb 87f 87f
6:00pm 17 18 mph 1017mb 88f 87f
5:00pm 15
mph
1017mb 88f 87f
4:00pm 13
mph
1017.4mb 88f 87f
3:00pm 9
mph
1018mb 88f 86f
2:00pm 3 5 mph 1018.8mb 87f 86f
1:00pm 3 5 mph 1019.3mb 87f 85f
12:00pm 2 3 mph 1019.3mb 86f 88f
11:00am 3 5 mph 1019.4mb 86f 85f
10:00am 7 8 mph 1019.4mb 86f 84f
9:00am 8 10 mph 1019.6mb 86f 84f
8:00am 8 10 mph 1019.1mb 87f 85f
7:00am 8 10 mph 1018.7mb 87f 84f
6:00am 7 9 mph 1018.2mb 87f 84f
5:00am 10 13 mph 1017.8mb 87f 84f
4:00am 11 13 mph 1018.3mb 87f 84f
3:00am 10
mph
1018.5mb 87f 84f
2:00am 10 11 mph 1019.2mb 87f 84f
1:00am 10 11 mph 1019.8mb 87f 85f
12:00am 11 13 mph 1019.7mb 86f 85f
Sun 07/27 11:00pm 10
mph
1019.7mb 86f 85f
10:00pm 10 11 mph 1019.2mb 87f 85f
9:00pm 10 11 mph 1018.7mb 87f 85f
8:00pm 13 14 mph 1018.7mb 87f 85f
7:00pm 13
mph
1018.9mb 87f 86f
6:00pm 14 16 mph 1018.8mb 89f 86f
5:00pm 14
mph
1018.5mb 88f 85f
4:00pm 13 14 mph 1018.7mb 88f 85f
3:00pm 11
mph
1019.2mb 88f 85f
2:00pm 7 8 mph 1019.8mb 88f 85f
1:00pm 5 7 mph 1020.3mb 87f 86f
12:00pm 2
mph
1020.6mb 86f 85f
11:00am  -  1 mph 1020.6mb 86f 87f
10:00am  -  1 mph 1020.6mb 86f 87f
9:00am 3 5 mph 1020mb 86f 88f
8:00am  -  mph 1019.6mb 86f 86f
7:00am 2 3 mph 1019mb 86f 84f
6:00am 2 3 mph 1018.9mb 87f 84f
5:00am 6
mph
1018.6mb 88f 84f
4:00am 5
mph
1018.5mb 88f 84f
3:00am 5 6 mph 1018.6mb 88f 84f
2:00am 9 10 mph 1018.7mb 87f 84f
1:00am 13 14 mph 1019.4mb 86f 84f
12:00am 9 10 mph 1019.7mb 86f 84f
Sat 07/26 11:00pm 8 9 mph 1019.9mb 86f 84f
10:00pm 9
mph
1019.8mb 87f 85f
9:00pm 6
mph
1019.2mb 87f 85f
8:00pm 8
mph
1018.6mb 87f 85f
7:00pm 5 6 mph 1018.8mb 87f 85f
6:00pm 5 6 mph 1019.1mb 88f 86f
5:00pm 3 5 mph 1019.2mb 88f 86f
4:00pm 13 14 mph 1018.8mb 88f 85f
3:00pm 8 9 mph 1019.8mb 87f 86f
2:00pm 10 13 mph 1019.8mb 87f 87f
1:00pm 10 11 mph 1020.1mb 87f 89f
12:00pm 11 13 mph 1020.3mb 86f 88f
11:00am 10 11 mph 1020.2mb 85f 87f
10:00am 11
mph
1019.8mb 86f 87f
9:00am 14 15 mph 1019.5mb 85f 86f
8:00am 9 14 mph 1019.1mb 85f 82f
7:00am 7 8 mph 1018.2mb 86f 84f
6:00am 7 8 mph 1017.6mb 87f 84f
5:00am 8
mph
1017.8mb 87f 84f